createdAt,value
2022-08-10T00:00:48.816Z,79.90
2022-08-10T00:01:51.354Z,79.69
2022-08-10T00:02:48.798Z,79.69
2022-08-10T00:03:48.811Z,80.03
2022-08-10T00:04:48.780Z,81.05
2022-08-10T00:05:52.650Z,80.24
2022-08-10T00:06:48.764Z,81.39
2022-08-10T00:07:48.729Z,81.09
2022-08-10T00:08:48.772Z,81.09
2022-08-10T00:09:50.101Z,80.74
2022-08-10T00:10:48.716Z,81.90
2022-08-10T00:11:48.706Z,81.39
2022-08-10T00:12:53.388Z,81.25
2022-08-10T00:13:49.694Z,80.47
2022-08-10T00:14:48.723Z,81.49
2022-08-10T00:15:53.650Z,81.84
2022-08-10T00:16:49.654Z,82.34
2022-08-10T00:17:48.667Z,81.67
2022-08-10T00:18:48.648Z,81.06
2022-08-10T00:20:03.509Z,82.48
2022-08-10T00:20:49.600Z,82.28
2022-08-10T00:21:48.611Z,81.98
2022-08-10T00:22:53.001Z,82.79
2022-08-10T00:23:49.581Z,81.87
2022-08-10T00:24:48.559Z,81.67
2022-08-10T00:25:48.564Z,82.07
2022-08-10T00:27:58.683Z,81.63
2022-08-10T00:28:01.455Z,81.63
2022-08-10T00:28:49.537Z,82.54
2022-08-10T00:29:48.524Z,83.67
2022-08-10T00:30:48.509Z,82.75
2022-08-10T00:31:55.957Z,81.84
2022-08-10T00:32:49.478Z,80.51
2022-08-10T00:33:48.493Z,80.82
2022-08-10T00:34:48.468Z,81.23
2022-08-10T00:35:48.464Z,80.51
2022-08-10T00:36:48.444Z,82.65
2022-08-10T00:37:56.201Z,82.65
2022-08-10T00:38:49.437Z,81.53
2022-08-10T00:39:48.476Z,81.53
2022-08-10T00:40:48.379Z,81.73
2022-08-10T00:42:07.005Z,82.54
2022-08-10T00:42:49.384Z,82.48
2022-08-10T00:43:48.379Z,83.67
2022-08-10T00:44:48.370Z,83.20
2022-08-10T00:45:59.259Z,82.38
2022-08-10T00:46:49.369Z,81.57
2022-08-10T00:47:48.345Z,81.98
2022-08-10T00:49:00.277Z,80.85
2022-08-10T00:49:49.329Z,80.62
2022-08-10T00:50:48.305Z,81.67
2022-08-10T00:51:48.800Z,81.87
2022-08-10T00:52:48.273Z,81.16
2022-08-10T00:53:48.293Z,81.26
2022-08-10T00:54:48.261Z,81.57
2022-08-10T00:57:12.756Z,81.46
2022-08-10T00:57:16.346Z,81.57
2022-08-10T00:57:54.818Z,82.32
2022-08-10T00:58:49.230Z,81.98
2022-08-10T00:59:59.642Z,82.52
2022-08-10T01:00:49.239Z,82.01
2022-08-10T01:02:08.795Z,82.01
2022-08-10T01:02:49.247Z,81.51
2022-08-10T01:04:36.174Z,82.12
2022-08-10T01:05:00.050Z,81.98
2022-08-10T01:05:51.593Z,82.12
2022-08-10T01:06:48.134Z,82.32
2022-08-10T01:07:48.113Z,81.81
2022-08-10T01:08:48.151Z,82.12
2022-08-10T01:09:55.843Z,82.32
2022-08-10T01:10:49.209Z,82.15
2022-08-10T01:12:38.258Z,82.66
2022-08-10T01:12:49.373Z,83.37
2022-08-10T01:13:48.071Z,83.68
2022-08-10T01:14:48.057Z,82.09
2022-08-10T01:15:48.074Z,81.74
2022-08-10T01:16:48.040Z,82.35
2022-08-10T01:17:49.822Z,82.76
2022-08-10T01:18:48.028Z,82.97
2022-08-10T01:19:48.016Z,82.56
2022-08-10T01:20:48.001Z,83.21
2022-08-10T01:21:54.297Z,84.23
2022-08-10T01:22:49.004Z,82.87
2022-08-10T01:23:47.965Z,84.33
2022-08-10T01:24:47.998Z,85.25
2022-08-10T01:26:11.743Z,84.33
2022-08-10T01:26:49.257Z,85.35
2022-08-10T01:27:47.929Z,85.96
2022-08-10T01:28:47.928Z,84.94
2022-08-10T01:29:47.921Z,84.94
2022-08-10T01:30:47.900Z,85.45
2022-08-10T01:31:47.882Z,85.14
2022-08-10T01:32:47.888Z,85.05
2022-08-10T01:33:59.070Z,85.14
2022-08-10T01:34:48.876Z,84.94
2022-08-10T01:35:47.860Z,84.90
2022-08-10T01:36:47.872Z,85.11
2022-08-10T01:37:51.926Z,85.05
2022-08-10T01:38:47.803Z,84.19
2022-08-10T01:39:47.900Z,83.98
2022-08-10T01:40:47.792Z,84.70
2022-08-10T01:41:47.782Z,84.84
2022-08-10T01:42:47.774Z,84.90
2022-08-10T01:43:47.791Z,84.94
2022-08-10T01:44:47.786Z,83.92
2022-08-10T01:45:47.741Z,84.43
2022-08-10T01:46:47.745Z,83.31
2022-08-10T01:47:47.753Z,83.45
2022-08-10T01:48:47.735Z,83.45
2022-08-10T01:49:47.728Z,84.47
2022-08-10T01:50:59.471Z,84.61
2022-08-10T01:51:48.695Z,83.49
2022-08-10T01:52:47.721Z,83.86
2022-08-10T01:53:47.711Z,83.56
2022-08-10T01:54:47.670Z,85.08
2022-08-10T01:55:47.687Z,85.90
2022-08-10T01:56:47.639Z,84.82
2022-08-10T01:57:47.631Z,85.22
2022-08-10T01:58:47.643Z,85.43
2022-08-10T01:59:58.688Z,86.15
2022-08-10T02:00:48.695Z,85.53
2022-08-10T02:01:47.750Z,85.43
2022-08-10T02:02:47.609Z,85.47
2022-08-10T02:04:04.046Z,85.37
2022-08-10T02:04:48.566Z,85.98
2022-08-10T02:05:47.576Z,85.82
2022-08-10T02:06:47.546Z,85.57
2022-08-10T02:07:47.526Z,84.66
2022-08-10T02:08:47.544Z,83.70
2022-08-10T02:09:47.522Z,84.31
2022-08-10T02:10:47.515Z,84.00
2022-08-10T02:12:06.473Z,83.70
2022-08-10T02:12:48.505Z,83.65
2022-08-10T02:13:47.505Z,84.00
2022-08-10T02:14:47.508Z,85.49
2022-08-10T02:16:01.298Z,85.13
2022-08-10T02:16:48.439Z,86.65
2022-08-10T02:17:58.523Z,86.24
2022-08-10T02:18:48.461Z,85.43
2022-08-10T02:19:47.420Z,85.90
2022-08-10T02:20:47.425Z,84.98
2022-08-10T02:22:37.037Z,84.58
2022-08-10T02:22:48.716Z,83.86
2022-08-10T02:23:59.676Z,84.37
2022-08-10T02:24:48.375Z,85.39
2022-08-10T02:25:47.350Z,85.22
2022-08-10T02:26:47.348Z,83.90
2022-08-10T02:27:47.373Z,84.61
2022-08-10T02:28:47.353Z,84.25
2022-08-10T02:29:49.078Z,83.94
2022-08-10T02:30:47.307Z,84.45
2022-08-10T02:31:47.321Z,85.37
2022-08-10T02:32:52.692Z,85.16
2022-08-10T02:33:57.666Z,84.34
2022-08-10T02:34:48.297Z,83.90
2022-08-10T02:35:55.305Z,83.70
2022-08-10T02:36:48.248Z,83.59
2022-08-10T02:37:47.227Z,82.88
2022-08-10T02:38:58.900Z,83.70
2022-08-10T02:39:48.245Z,84.82
2022-08-10T02:42:18.191Z,84.20
2022-08-10T02:45:12.912Z,85.02
2022-08-10T02:45:18.782Z,85.74
2022-08-10T02:45:20.854Z,85.13
2022-08-10T02:45:21.402Z,85.53
2022-08-10T02:45:49.177Z,85.27
2022-08-10T02:46:47.155Z,84.96
2022-08-10T02:47:52.003Z,85.98
2022-08-10T02:48:48.143Z,85.82
2022-08-10T02:49:47.147Z,87.14
2022-08-10T02:50:47.121Z,87.04
2022-08-10T02:52:06.382Z,87.35
2022-08-10T02:52:48.082Z,87.96
2022-08-10T02:53:51.761Z,86.12
2022-08-10T02:54:48.099Z,85.92
2022-08-10T02:55:47.071Z,86.47
2022-08-10T02:56:47.060Z,85.92
2022-08-10T02:58:16.988Z,86.77
2022-08-10T02:58:48.064Z,87.59
2022-08-10T02:59:47.045Z,86.47
2022-08-10T03:00:47.139Z,85.65
2022-08-10T03:01:46.995Z,85.71
2022-08-10T03:02:47.000Z,85.61
2022-08-10T03:03:46.979Z,87.14
2022-08-10T03:04:55.063Z,85.71
2022-08-10T03:05:48.011Z,86.02
2022-08-10T03:06:46.950Z,86.02
2022-08-10T03:07:46.935Z,86.02
2022-08-10T03:08:46.957Z,87.04
2022-08-10T03:09:46.932Z,87.45
2022-08-10T03:10:46.946Z,87.00
2022-08-10T03:12:35.834Z,87.00
2022-08-10T03:12:48.232Z,86.43
2022-08-10T03:13:51.117Z,86.53
2022-08-10T03:14:48.904Z,86.53
2022-08-10T03:15:46.879Z,86.94
2022-08-10T03:16:46.872Z,87.55
2022-08-10T03:17:57.614Z,86.12
2022-08-10T03:18:47.842Z,85.71
2022-08-10T03:20:34.082Z,85.61
2022-08-10T03:20:47.834Z,86.16
2022-08-10T03:21:46.820Z,84.22
2022-08-10T03:22:46.808Z,84.42
2022-08-10T03:23:46.796Z,85.65
2022-08-10T03:24:46.822Z,85.65
2022-08-10T03:25:53.755Z,85.65
2022-08-10T03:26:47.788Z,86.36
2022-08-10T03:27:46.746Z,86.88
2022-08-10T03:28:46.751Z,87.32
2022-08-10T03:30:29.410Z,87.02
2022-08-10T03:30:47.720Z,88.45
2022-08-10T03:31:46.735Z,87.63
2022-08-10T03:32:46.714Z,87.08
2022-08-10T03:33:46.687Z,87.08
2022-08-10T03:34:46.723Z,87.18
2022-08-10T03:36:41.370Z,86.67
2022-08-10T03:36:47.657Z,86.20
2022-08-10T03:37:46.656Z,87.26
2022-08-10T03:38:46.658Z,86.85
2022-08-10T03:39:46.713Z,87.16
2022-08-10T03:40:46.809Z,87.67
2022-08-10T03:41:53.290Z,87.37
2022-08-10T03:42:47.619Z,86.24
2022-08-10T03:43:46.610Z,86.24
2022-08-10T03:44:50.375Z,85.79
2022-08-10T03:45:55.889Z,85.38
2022-08-10T03:46:47.573Z,85.38
2022-08-10T03:47:46.546Z,85.59
2022-08-10T03:48:49.739Z,85.89
2022-08-10T03:49:46.558Z,85.45
2022-08-10T03:50:51.891Z,85.65
2022-08-10T03:51:47.502Z,85.45
2022-08-10T03:52:46.519Z,85.69
2022-08-10T03:54:04.246Z,85.86
2022-08-10T03:54:47.501Z,85.38
2022-08-10T03:56:30.130Z,84.98
2022-08-10T03:56:47.451Z,85.18
2022-08-10T03:57:49.712Z,85.73
2022-08-10T03:58:46.464Z,86.30
2022-08-10T03:59:46.446Z,85.89
2022-08-10T04:00:46.504Z,85.79
2022-08-10T04:02:45.056Z,85.89
2022-08-10T04:02:48.468Z,85.83
2022-08-10T04:03:47.424Z,86.35
2022-08-10T04:04:46.399Z,86.76
2022-08-10T04:05:46.378Z,87.20
2022-08-10T04:06:46.361Z,86.14
2022-08-10T04:07:47.409Z,86.14
2022-08-10T04:08:46.337Z,85.83
2022-08-10T04:09:55.252Z,86.04
2022-08-10T04:10:47.345Z,85.49
2022-08-10T04:11:46.317Z,86.76
2022-08-10T04:12:46.311Z,87.84
2022-08-10T04:13:46.313Z,88.08
2022-08-10T04:14:49.641Z,89.00
2022-08-10T04:15:47.289Z,87.98
2022-08-10T04:16:46.280Z,87.12
2022-08-10T04:18:02.667Z,87.32
2022-08-10T04:18:47.255Z,88.45
2022-08-10T04:19:46.302Z,87.12
2022-08-10T04:20:46.244Z,86.51
2022-08-10T04:21:47.222Z,87.12
2022-08-10T04:22:46.226Z,86.61
2022-08-10T04:23:49.908Z,86.51
2022-08-10T04:24:48.212Z,87.12
2022-08-10T04:25:46.188Z,87.02
2022-08-10T04:26:46.185Z,87.12
2022-08-10T04:27:46.183Z,86.61
2022-08-10T04:28:46.187Z,86.91
2022-08-10T04:29:46.164Z,87.84
2022-08-10T04:30:46.136Z,89.00
2022-08-10T04:31:46.138Z,88.79
2022-08-10T04:32:46.133Z,88.79
2022-08-10T04:33:46.111Z,88.79
2022-08-10T04:34:47.106Z,88.49
2022-08-10T04:35:46.096Z,88.55
2022-08-10T04:36:46.080Z,88.85
2022-08-10T04:37:47.018Z,88.79
2022-08-10T04:38:46.049Z,88.59
2022-08-10T04:39:46.129Z,88.49
2022-08-10T04:40:46.033Z,88.29
2022-08-10T04:41:46.274Z,88.70
2022-08-10T04:42:46.018Z,88.59
2022-08-10T04:43:46.001Z,88.79
2022-08-10T04:44:46.011Z,88.65
2022-08-10T04:45:47.837Z,88.76
2022-08-10T04:46:55.681Z,88.04
2022-08-10T04:48:00.613Z,88.61
2022-08-10T04:48:59.565Z,88.00
2022-08-10T04:49:55.117Z,88.00
2022-08-10T04:50:46.917Z,87.08
2022-08-10T04:51:45.925Z,86.43
2022-08-10T04:52:45.912Z,86.94
2022-08-10T04:54:03.216Z,86.69
2022-08-10T04:54:46.909Z,87.20
2022-08-10T04:55:45.879Z,86.80
2022-08-10T04:56:45.871Z,87.10
2022-08-10T04:57:45.847Z,86.29
2022-08-10T04:58:45.856Z,87.16
2022-08-10T04:59:46.848Z,86.24
2022-08-10T05:00:45.857Z,86.65
2022-08-10T05:02:29.843Z,86.76
2022-08-10T05:02:46.806Z,85.63
2022-08-10T05:04:35.921Z,85.43
2022-08-10T05:04:46.801Z,85.49
2022-08-10T05:05:46.790Z,85.39
2022-08-10T05:06:45.779Z,85.90
2022-08-10T05:07:54.215Z,85.45
2022-08-10T05:08:47.666Z,85.66
2022-08-10T05:10:03.908Z,86.16
2022-08-10T05:10:46.737Z,85.75
2022-08-10T05:11:45.728Z,85.66
2022-08-10T05:12:45.705Z,85.41
2022-08-10T05:13:45.705Z,85.31
2022-08-10T05:14:45.717Z,84.74
2022-08-10T05:15:45.683Z,84.90
2022-08-10T05:16:45.725Z,85.61
2022-08-10T05:18:06.904Z,85.00
2022-08-10T05:18:46.665Z,84.59
2022-08-10T05:20:02.949Z,85.06
2022-08-10T05:20:50.112Z,84.15
2022-08-10T05:22:03.365Z,84.21
2022-08-10T05:22:46.634Z,83.60
2022-08-10T05:23:45.613Z,84.21
2022-08-10T05:24:45.599Z,83.36
2022-08-10T05:25:46.348Z,82.85
2022-08-10T05:27:00.568Z,82.65
2022-08-10T05:27:46.581Z,82.20
2022-08-10T05:28:45.548Z,82.61
2022-08-10T05:29:45.536Z,82.51
2022-08-10T05:30:46.563Z,82.92
2022-08-10T05:31:45.521Z,81.86
2022-08-10T05:32:56.657Z,82.06
2022-08-10T05:33:46.530Z,81.56
2022-08-10T05:34:45.512Z,81.45
2022-08-10T05:35:56.611Z,80.71
2022-08-10T05:36:46.499Z,80.40
2022-08-10T05:38:09.920Z,81.41
2022-08-10T05:38:46.478Z,80.16
2022-08-10T05:39:45.531Z,80.50
2022-08-10T05:40:47.526Z,80.06
2022-08-10T05:41:48.708Z,79.75
2022-08-10T05:42:47.425Z,79.41
2022-08-10T05:43:45.430Z,79.41
2022-08-10T05:44:45.440Z,79.41
2022-08-10T05:46:17.522Z,79.00
2022-08-10T05:46:46.384Z,79.51
2022-08-10T05:48:58.146Z,80.22
2022-08-10T05:48:58.811Z,79.41
2022-08-10T05:49:46.378Z,79.58
2022-08-10T05:50:45.364Z,78.97
2022-08-10T05:51:45.362Z,79.17
2022-08-10T05:52:45.362Z,78.33
2022-08-10T05:54:00.853Z,79.13
2022-08-10T05:54:46.314Z,79.13
2022-08-10T05:55:45.330Z,79.34
2022-08-10T05:56:55.902Z,79.13
2022-08-10T05:57:46.276Z,79.00
2022-08-10T05:58:45.263Z,79.20
2022-08-10T06:00:35.178Z,78.79
2022-08-10T06:00:49.770Z,78.59
2022-08-10T06:02:30.807Z,78.45
2022-08-10T06:02:46.620Z,77.54
2022-08-10T06:03:45.234Z,77.61
2022-08-10T06:04:45.214Z,77.37
2022-08-10T06:05:45.213Z,77.37
2022-08-10T06:06:45.185Z,76.56
2022-08-10T06:07:45.201Z,76.46
2022-08-10T06:08:45.193Z,76.35
2022-08-10T06:09:59.432Z,76.76
2022-08-10T06:12:21.892Z,77.17
2022-08-10T06:12:27.479Z,76.52
2022-08-10T06:12:55.718Z,76.39
2022-08-10T06:13:59.432Z,76.48
2022-08-10T06:14:52.980Z,75.64
2022-08-10T06:15:52.082Z,75.24
2022-08-10T06:16:46.098Z,74.13
2022-08-10T06:17:45.084Z,73.89
2022-08-10T06:18:46.073Z,73.85
2022-08-10T06:19:45.143Z,73.45
2022-08-10T06:20:45.056Z,73.45
2022-08-10T06:21:55.019Z,72.81
2022-08-10T06:22:46.020Z,72.20
2022-08-10T06:23:45.037Z,71.77
2022-08-10T06:25:12.244Z,70.42
2022-08-10T06:26:10.325Z,70.12
2022-08-10T06:26:46.997Z,70.79
2022-08-10T06:27:44.970Z,70.46
2022-08-10T06:29:03.380Z,68.04
2022-08-10T06:29:45.982Z,67.68
2022-08-10T06:30:45.036Z,67.24
2022-08-10T06:31:48.185Z,68.55
2022-08-10T06:32:44.937Z,68.44
2022-08-10T06:33:44.917Z,68.95
2022-08-10T06:34:44.917Z,68.75
2022-08-10T06:35:44.931Z,68.31
2022-08-10T06:36:44.916Z,67.03
2022-08-10T06:37:51.409Z,66.97
2022-08-10T06:38:45.866Z,66.67
2022-08-10T06:39:44.950Z,67.04
2022-08-10T06:40:44.948Z,66.71
2022-08-10T06:42:01.342Z,67.18
2022-08-10T06:42:45.847Z,66.17
2022-08-10T06:43:44.871Z,65.54
2022-08-10T06:44:44.835Z,65.11
2022-08-10T06:45:44.829Z,63.78
2022-08-10T06:46:48.055Z,63.14
2022-08-10T06:47:45.796Z,62.64
2022-08-10T06:48:44.806Z,62.04
2022-08-10T06:49:44.780Z,61.71
2022-08-10T06:50:58.253Z,61.94
2022-08-10T06:51:45.769Z,61.24
2022-08-10T06:52:45.792Z,62.34
2022-08-10T06:53:53.097Z,62.54
2022-08-10T06:54:45.745Z,61.97
2022-08-10T06:55:55.693Z,62.50
2022-08-10T06:57:01.740Z,63.20
2022-08-10T06:57:59.762Z,62.27
2022-08-10T06:58:45.687Z,62.17
2022-08-10T06:59:45.521Z,62.37
2022-08-10T07:00:44.681Z,62.87
2022-08-10T07:01:44.663Z,62.84
2022-08-10T07:02:45.672Z,63.17
2022-08-10T07:03:44.634Z,63.87
2022-08-10T07:04:44.649Z,64.07
2022-08-10T07:05:47.991Z,64.71
2022-08-10T07:06:46.638Z,64.58
2022-08-10T07:07:44.646Z,64.04
2022-08-10T07:08:44.578Z,63.28
2022-08-10T07:09:44.593Z,60.95
2022-08-10T07:10:45.894Z,61.79
2022-08-10T07:11:44.623Z,59.36
2022-08-10T07:12:44.572Z,59.64
2022-08-10T07:14:17.356Z,57.93
2022-08-10T07:14:45.552Z,58.14
2022-08-10T07:15:59.493Z,57.44
2022-08-10T07:16:45.545Z,57.58
2022-08-10T07:17:44.529Z,58.03
2022-08-10T07:18:44.514Z,56.27
2022-08-10T07:19:49.940Z,54.96
2022-08-10T07:20:45.483Z,55.23
2022-08-10T07:21:44.513Z,53.81
2022-08-10T07:23:27.060Z,54.01
2022-08-10T07:23:57.528Z,54.41
2022-08-10T07:24:45.447Z,53.11
2022-08-10T07:25:44.471Z,53.28
2022-08-10T07:26:44.413Z,53.33
2022-08-10T07:28:00.511Z,52.74
2022-08-10T07:28:48.126Z,51.95
2022-08-10T07:29:53.400Z,51.84
2022-08-10T07:30:45.368Z,50.63
2022-08-10T07:31:57.221Z,51.42
2022-08-10T07:32:45.366Z,51.25
2022-08-10T07:33:44.357Z,52.24
2022-08-10T07:34:44.353Z,52.00
2022-08-10T07:35:44.344Z,50.28
2022-08-10T07:36:44.344Z,47.43
2022-08-10T07:37:44.311Z,47.61
2022-08-10T07:38:44.312Z,46.71
2022-08-10T07:39:58.403Z,47.41
2022-08-10T07:40:45.442Z,45.00
2022-08-10T07:41:44.294Z,46.89
2022-08-10T07:42:45.967Z,47.75
2022-08-10T07:43:45.284Z,46.35
2022-08-10T07:44:44.255Z,48.21
2022-08-10T07:45:44.431Z,45.31
2022-08-10T07:46:44.256Z,44.94
2022-08-10T07:47:52.522Z,44.54
2022-08-10T07:48:45.205Z,44.19
2022-08-10T07:49:45.204Z,45.87
2022-08-10T07:50:44.207Z,45.06
2022-08-10T07:51:44.203Z,46.57
2022-08-10T07:52:44.188Z,44.90
2022-08-10T07:53:44.155Z,45.52
2022-08-10T07:54:44.158Z,45.12
2022-08-10T07:56:05.687Z,45.32
2022-08-10T07:56:49.433Z,45.40
2022-08-10T07:57:45.118Z,46.59
2022-08-10T07:58:51.576Z,45.28
2022-08-10T07:59:45.098Z,45.08
2022-08-10T08:00:44.079Z,45.85
2022-08-10T08:01:44.160Z,45.45
2022-08-10T08:02:44.071Z,44.67
2022-08-10T08:03:44.050Z,44.17
2022-08-10T08:04:45.036Z,44.76
2022-08-10T08:05:58.862Z,45.14
2022-08-10T08:06:45.036Z,46.23
2022-08-10T08:07:44.003Z,42.76
2022-08-10T08:08:44.010Z,43.55
2022-08-10T08:09:57.735Z,44.62
2022-08-10T08:10:44.983Z,43.33
2022-08-10T08:11:43.985Z,44.40
2022-08-10T08:12:43.994Z,44.62
2022-08-10T08:13:43.963Z,42.46
2022-08-10T08:14:43.971Z,42.46
2022-08-10T08:16:19.636Z,44.32
2022-08-10T08:16:45.958Z,44.52
2022-08-10T08:17:43.927Z,44.70
2022-08-10T08:19:04.085Z,42.92
2022-08-10T08:19:55.297Z,44.40
2022-08-10T08:20:44.897Z,42.35
2022-08-10T08:24:08.883Z,43.80
2022-08-10T08:24:09.032Z,45.41
2022-08-10T08:24:09.206Z,43.69
2022-08-10T08:24:44.903Z,44.18
2022-08-10T08:25:43.872Z,42.96
2022-08-10T08:26:46.102Z,41.47
2022-08-10T08:27:47.906Z,41.17
2022-08-10T08:28:43.829Z,41.47
2022-08-10T08:29:43.818Z,40.56
2022-08-10T08:30:48.706Z,41.75
2022-08-10T08:32:01.975Z,39.97
2022-08-10T08:32:44.793Z,41.73
2022-08-10T08:33:43.815Z,41.16
2022-08-10T08:34:43.785Z,41.83
2022-08-10T08:35:43.791Z,39.95
2022-08-10T08:36:43.757Z,42.05
2022-08-10T08:38:33.126Z,43.70
2022-08-10T08:38:44.757Z,41.61
2022-08-10T08:39:44.222Z,39.64
2022-08-10T08:40:43.699Z,40.03
2022-08-10T08:41:43.752Z,38.77
2022-08-10T08:42:43.748Z,38.95
2022-08-10T08:43:43.688Z,42.18
2022-08-10T08:44:43.684Z,39.92
2022-08-10T08:46:00.356Z,38.93
2022-08-10T08:46:44.689Z,38.75
2022-08-10T08:48:04.148Z,38.85
2022-08-10T08:48:44.673Z,39.04
2022-08-10T08:50:07.755Z,39.92
2022-08-10T08:50:44.656Z,37.26
2022-08-10T08:52:17.237Z,37.93
2022-08-10T08:52:44.641Z,38.14
2022-08-10T08:54:01.838Z,39.11
2022-08-10T08:54:44.606Z,39.01
2022-08-10T08:56:04.654Z,38.71
2022-08-10T08:56:48.278Z,38.89
2022-08-10T08:57:49.629Z,37.53
2022-08-10T08:58:44.637Z,38.71
2022-08-10T08:59:43.551Z,37.99
2022-08-10T09:00:43.583Z,38.28
2022-08-10T09:01:43.556Z,38.66
2022-08-10T09:02:43.537Z,38.44
2022-08-10T09:03:44.524Z,36.57
2022-08-10T09:04:43.500Z,36.59
2022-08-10T09:05:58.824Z,37.18
2022-08-10T09:06:44.481Z,36.40
2022-08-10T09:08:01.612Z,35.74
2022-08-10T09:08:44.498Z,36.82
2022-08-10T09:09:43.485Z,36.51
2022-08-10T09:10:43.462Z,36.41
2022-08-10T09:11:43.457Z,36.80
2022-08-10T09:12:43.443Z,36.10
2022-08-10T09:13:43.459Z,36.49
2022-08-10T09:14:43.424Z,36.49
2022-08-10T09:15:43.406Z,36.10
2022-08-10T09:16:43.408Z,36.92
2022-08-10T09:17:43.399Z,36.33
2022-08-10T09:18:43.369Z,36.55
2022-08-10T09:19:43.368Z,36.94
2022-08-10T09:20:43.450Z,36.94
2022-08-10T09:21:58.561Z,37.95
2022-08-10T09:22:44.371Z,36.55
2022-08-10T09:24:04.704Z,36.15
2022-08-10T09:24:44.343Z,34.46
2022-08-10T09:25:43.308Z,35.05
2022-08-10T09:26:43.319Z,35.56
2022-08-10T09:27:43.562Z,36.15
2022-08-10T09:28:43.277Z,34.66
2022-08-10T09:29:43.272Z,35.44
2022-08-10T09:31:03.607Z,35.74
2022-08-10T09:33:05.508Z,36.90
2022-08-10T09:36:14.575Z,35.13
2022-08-10T09:36:20.172Z,34.82
2022-08-10T09:36:24.245Z,35.31
2022-08-10T09:36:24.406Z,34.43
2022-08-10T09:36:44.204Z,34.80
2022-08-10T09:38:01.961Z,34.11
2022-08-10T09:38:44.190Z,35.00
2022-08-10T09:40:58.213Z,34.49
2022-08-10T09:40:59.861Z,34.20
2022-08-10T09:41:44.236Z,35.47
2022-08-10T09:42:43.146Z,33.91
2022-08-10T09:43:43.141Z,34.99
2022-08-10T09:44:58.021Z,34.03
2022-08-10T09:45:44.113Z,34.43
2022-08-10T09:46:43.117Z,34.05
2022-08-10T09:48:00.121Z,34.05
2022-08-10T09:48:44.092Z,34.33
2022-08-10T09:49:54.912Z,35.21
2022-08-10T09:51:28.062Z,36.22
2022-08-10T09:51:46.618Z,35.03
2022-08-10T09:52:44.089Z,34.84
2022-08-10T09:53:43.057Z,36.90
2022-08-10T09:54:43.039Z,34.25
2022-08-10T09:56:17.882Z,36.49
2022-08-10T09:56:44.033Z,36.54
2022-08-10T09:57:46.513Z,33.48
2022-08-10T09:58:44.021Z,33.49
2022-08-10T10:00:01.354Z,34.75
2022-08-10T10:00:44.021Z,33.46
2022-08-10T10:01:57.891Z,33.36
2022-08-10T10:02:43.954Z,32.20
2022-08-10T10:03:43.018Z,34.08
2022-08-10T10:04:42.950Z,34.06
2022-08-10T10:05:50.060Z,34.08
2022-08-10T10:06:43.992Z,34.66
2022-08-10T10:07:42.936Z,32.12
2022-08-10T10:08:43.272Z,30.05
2022-08-10T10:09:43.971Z,31.81
2022-08-10T10:10:47.407Z,29.75
2022-08-10T10:11:43.901Z,30.05
2022-08-10T10:12:42.875Z,32.33
2022-08-10T10:14:00.197Z,33.51
2022-08-10T10:14:43.857Z,34.11
2022-08-10T10:15:42.872Z,35.18
2022-08-10T10:16:42.846Z,34.31
2022-08-10T10:17:42.854Z,34.01
2022-08-10T10:18:42.832Z,36.40
2022-08-10T10:19:42.842Z,34.22
2022-08-10T10:20:42.789Z,33.61
2022-08-10T10:21:54.791Z,34.77
2022-08-10T10:22:43.852Z,32.81
2022-08-10T10:23:55.186Z,33.59
2022-08-10T10:24:43.764Z,33.07
2022-08-10T10:25:50.624Z,31.87
2022-08-10T10:26:43.769Z,31.97
2022-08-10T10:27:42.736Z,33.04
2022-08-10T10:29:15.626Z,32.73
2022-08-10T10:29:56.625Z,32.15
2022-08-10T10:30:44.741Z,33.23
2022-08-10T10:31:42.766Z,33.75
2022-08-10T10:32:42.747Z,31.99
2022-08-10T10:33:42.797Z,30.43
2022-08-10T10:34:42.702Z,32.21
2022-08-10T10:35:42.652Z,32.12
2022-08-10T10:36:42.692Z,32.12
2022-08-10T10:38:02.963Z,34.89
2022-08-10T10:38:43.646Z,33.29
2022-08-10T10:39:42.731Z,33.00
2022-08-10T10:40:42.639Z,33.20
2022-08-10T10:41:56.109Z,33.28
2022-08-10T10:42:45.719Z,32.09
2022-08-10T10:43:43.650Z,32.38
2022-08-10T10:44:42.640Z,32.46
2022-08-10T10:45:50.774Z,32.76
2022-08-10T10:46:43.607Z,30.10
2022-08-10T10:47:42.547Z,29.90
2022-08-10T10:48:42.564Z,30.80
2022-08-10T10:49:42.554Z,31.67
2022-08-10T10:50:42.568Z,31.76
2022-08-10T10:51:42.523Z,31.63
2022-08-10T10:52:42.520Z,30.72
2022-08-10T10:53:42.575Z,30.44
2022-08-10T10:54:42.491Z,29.66
2022-08-10T10:56:13.717Z,31.06
2022-08-10T10:56:43.444Z,30.68
2022-08-10T10:57:58.857Z,32.68
2022-08-10T10:58:43.486Z,34.08
2022-08-10T10:59:56.315Z,33.79
2022-08-10T11:00:43.444Z,32.10
2022-08-10T11:01:42.492Z,32.12
2022-08-10T11:02:42.412Z,32.41
2022-08-10T11:03:42.418Z,31.56
2022-08-10T11:04:42.446Z,33.74
2022-08-10T11:05:42.391Z,34.03
2022-08-10T11:06:42.387Z,32.95
2022-08-10T11:07:42.392Z,33.43
2022-08-10T11:08:43.535Z,34.78
2022-08-10T11:10:03.376Z,32.33
2022-08-10T11:10:47.202Z,31.36
2022-08-10T11:12:00.271Z,32.07
2022-08-10T11:12:45.804Z,33.64
2022-08-10T11:14:24.455Z,33.34
2022-08-10T11:14:43.337Z,32.36
2022-08-10T11:15:42.719Z,31.85
2022-08-10T11:16:43.381Z,30.95
2022-08-10T11:17:42.287Z,30.15
2022-08-10T11:18:42.274Z,30.73
2022-08-10T11:20:01.490Z,30.12
2022-08-10T11:20:43.261Z,30.99
2022-08-10T11:21:42.251Z,29.59
2022-08-10T11:22:42.254Z,29.18
2022-08-10T11:23:42.243Z,29.31
2022-08-10T11:24:42.474Z,29.82
2022-08-10T11:25:43.199Z,30.43
2022-08-10T11:26:42.231Z,30.22
2022-08-10T11:27:42.196Z,30.73
2022-08-10T11:28:42.188Z,30.01
2022-08-10T11:29:45.740Z,29.33
2022-08-10T11:30:44.168Z,32.43
2022-08-10T11:31:42.154Z,29.75
2022-08-10T11:32:42.153Z,29.66
2022-08-10T11:34:04.037Z,29.22
2022-08-10T11:34:48.721Z,31.96
2022-08-10T11:35:43.102Z,32.71
2022-08-10T11:36:42.080Z,28.67
2022-08-10T11:38:32.159Z,29.83
2022-08-10T11:39:04.098Z,29.20
2022-08-10T11:39:48.839Z,27.83
2022-08-10T11:40:43.056Z,28.03
2022-08-10T11:42:10.367Z,28.40
2022-08-10T11:42:43.097Z,26.86
2022-08-10T11:43:42.077Z,27.45
2022-08-10T11:44:42.016Z,27.13
2022-08-10T11:45:52.237Z,28.33
2022-08-10T11:46:42.993Z,29.36
2022-08-10T11:47:41.995Z,29.72
2022-08-10T11:48:54.289Z,31.20
2022-08-10T11:49:42.986Z,31.82
2022-08-10T11:50:41.991Z,31.54
2022-08-10T11:51:41.976Z,31.82
2022-08-10T11:52:41.947Z,33.20
2022-08-10T11:53:41.990Z,32.28
2022-08-10T11:54:41.972Z,30.39
2022-08-10T11:55:41.919Z,30.16
2022-08-10T11:56:41.959Z,30.91
2022-08-10T11:57:54.130Z,29.84
2022-08-10T11:58:42.914Z,29.56
2022-08-10T11:59:41.880Z,29.56
2022-08-10T12:00:41.883Z,30.08
2022-08-10T12:01:41.883Z,30.50
2022-08-10T12:02:41.905Z,30.10
2022-08-10T12:03:41.841Z,30.67
2022-08-10T12:04:41.840Z,29.58
2022-08-10T12:05:51.973Z,28.49
2022-08-10T12:06:55.140Z,28.18
2022-08-10T12:10:04.951Z,29.18
2022-08-10T12:10:05.958Z,27.70
2022-08-10T12:10:10.185Z,29.07
2022-08-10T12:10:42.809Z,29.18
2022-08-10T12:11:41.819Z,30.08
2022-08-10T12:12:41.807Z,29.95
2022-08-10T12:13:53.839Z,29.08
2022-08-10T12:14:43.769Z,28.29
2022-08-10T12:15:41.740Z,29.66
2022-08-10T12:16:41.748Z,29.16
2022-08-10T12:17:41.882Z,28.47
2022-08-10T12:18:41.733Z,26.99
2022-08-10T12:20:01.148Z,26.50
2022-08-10T12:20:42.704Z,26.81
2022-08-10T12:21:41.737Z,27.78
2022-08-10T12:22:41.730Z,27.49
2022-08-10T12:23:41.692Z,28.08
2022-08-10T12:24:41.661Z,26.90
2022-08-10T12:25:56.439Z,27.28
2022-08-10T12:26:42.641Z,25.71
2022-08-10T12:27:41.631Z,25.79
2022-08-10T12:28:51.560Z,26.76
2022-08-10T12:29:43.013Z,26.93
2022-08-10T12:30:41.611Z,25.95
2022-08-10T12:31:41.648Z,25.92
2022-08-10T12:32:41.590Z,26.09
2022-08-10T12:34:01.982Z,23.25
2022-08-10T12:34:42.644Z,25.02
2022-08-10T12:35:56.065Z,24.91
2022-08-10T12:36:43.709Z,25.02
2022-08-10T12:37:41.585Z,25.43
2022-08-10T12:38:41.562Z,25.93
2022-08-10T12:39:41.689Z,26.49
2022-08-10T12:40:50.790Z,29.85
2022-08-10T12:41:43.646Z,29.00
2022-08-10T12:42:42.159Z,29.88
2022-08-10T12:44:05.424Z,28.79
2022-08-10T12:44:42.835Z,28.99
2022-08-10T12:45:41.480Z,28.61
2022-08-10T12:46:41.529Z,29.80
2022-08-10T12:47:41.476Z,28.85
2022-08-10T12:48:41.460Z,29.93
2022-08-10T12:49:41.453Z,27.75
2022-08-10T12:50:42.428Z,29.98
2022-08-10T12:51:41.397Z,26.33
2022-08-10T12:52:42.432Z,27.00